createdAt,value
2023-03-31T00:00:10.615Z,502.00
2023-03-31T00:01:10.618Z,502.00
2023-03-31T00:02:10.597Z,504.00
2023-03-31T00:03:10.859Z,501.00
2023-03-31T00:04:10.742Z,502.00
2023-03-31T00:05:10.594Z,501.00
2023-03-31T00:06:10.599Z,504.00
2023-03-31T00:07:10.609Z,500.00
2023-03-31T00:08:10.631Z,501.00
2023-03-31T00:09:11.686Z,505.00
2023-03-31T00:10:17.885Z,504.00
2023-03-31T00:11:11.617Z,504.00
2023-03-31T00:12:10.623Z,505.00
2023-03-31T00:13:10.603Z,506.00
2023-03-31T00:14:10.608Z,506.00
2023-03-31T00:15:10.585Z,502.00
2023-03-31T00:16:10.822Z,501.00
2023-03-31T00:17:10.581Z,505.00
2023-03-31T00:18:10.587Z,503.00
2023-03-31T00:19:10.587Z,504.00
2023-03-31T00:20:10.548Z,500.00
2023-03-31T00:21:10.550Z,505.00
2023-03-31T00:22:10.525Z,505.00
2023-03-31T00:23:10.704Z,502.00
2023-03-31T00:24:10.542Z,506.00
2023-03-31T00:25:10.533Z,501.00
2023-03-31T00:26:10.518Z,502.00
2023-03-31T00:27:10.496Z,503.00
2023-03-31T00:28:10.497Z,500.00
2023-03-31T00:29:10.510Z,503.00
2023-03-31T00:30:10.471Z,501.00
2023-03-31T00:31:10.472Z,503.00
2023-03-31T00:32:10.524Z,503.00
2023-03-31T00:33:10.481Z,502.00
2023-03-31T00:34:10.465Z,505.00
2023-03-31T00:35:10.504Z,508.00
2023-03-31T00:36:10.475Z,504.00
2023-03-31T00:37:10.519Z,509.00
2023-03-31T00:38:10.422Z,507.00
2023-03-31T00:39:10.426Z,507.00
2023-03-31T00:40:10.415Z,504.00
2023-03-31T00:41:10.407Z,503.00
2023-03-31T00:42:10.409Z,501.00
2023-03-31T00:43:10.416Z,501.00
2023-03-31T00:44:10.370Z,502.00
2023-03-31T00:45:10.373Z,500.00
2023-03-31T00:46:10.384Z,504.00
2023-03-31T00:47:10.346Z,502.00
2023-03-31T00:48:10.538Z,503.00
2023-03-31T00:49:10.379Z,506.00
2023-03-31T00:50:10.330Z,504.00
2023-03-31T00:51:10.337Z,501.00
2023-03-31T00:52:10.352Z,502.00
2023-03-31T00:53:10.313Z,501.00
2023-03-31T00:54:10.304Z,502.00
2023-03-31T00:55:10.278Z,503.00
2023-03-31T00:56:10.308Z,504.00
2023-03-31T00:57:10.348Z,503.00
2023-03-31T00:58:10.307Z,503.00
2023-03-31T00:59:10.286Z,501.00
2023-03-31T01:00:10.314Z,501.00
2023-03-31T01:01:10.347Z,503.00
2023-03-31T01:02:10.347Z,503.00
2023-03-31T01:03:10.497Z,505.00
2023-03-31T01:04:10.465Z,505.00
2023-03-31T01:05:10.341Z,504.00
2023-03-31T01:06:10.351Z,502.00
2023-03-31T01:07:10.383Z,503.00
2023-03-31T01:08:10.381Z,500.00
2023-03-31T01:09:10.386Z,500.00
2023-03-31T01:10:10.396Z,503.00
2023-03-31T01:11:10.418Z,501.00
2023-03-31T01:12:10.427Z,500.00
2023-03-31T01:13:10.435Z,506.00
2023-03-31T01:14:10.431Z,502.00
2023-03-31T01:15:10.468Z,503.00
2023-03-31T01:16:10.513Z,503.00
2023-03-31T01:17:10.557Z,500.00
2023-03-31T01:18:10.612Z,501.00
2023-03-31T01:19:10.479Z,503.00
2023-03-31T01:20:10.505Z,503.00
2023-03-31T01:21:10.547Z,502.00
2023-03-31T01:22:10.534Z,505.00
2023-03-31T01:23:10.574Z,502.00
2023-03-31T01:24:10.585Z,504.00
2023-03-31T01:25:10.584Z,502.00
2023-03-31T01:26:10.624Z,503.00
2023-03-31T01:27:10.607Z,501.00
2023-03-31T01:28:10.616Z,504.00
2023-03-31T01:29:10.671Z,502.00
2023-03-31T01:30:10.627Z,500.00
2023-03-31T01:31:10.693Z,500.00
2023-03-31T01:32:10.647Z,501.00
2023-03-31T01:33:10.738Z,500.00
2023-03-31T01:34:10.675Z,500.00
2023-03-31T01:35:10.710Z,500.00
2023-03-31T01:36:10.745Z,501.00
2023-03-31T01:37:10.762Z,503.00
2023-03-31T01:38:10.738Z,503.00
2023-03-31T01:39:10.767Z,503.00
2023-03-31T01:40:10.767Z,500.00
2023-03-31T01:41:10.767Z,501.00
2023-03-31T01:42:10.783Z,503.00
2023-03-31T01:43:10.912Z,505.00
2023-03-31T01:44:10.835Z,508.00
2023-03-31T01:45:10.844Z,508.00
2023-03-31T01:46:10.885Z,502.00
2023-03-31T01:47:10.851Z,504.00
2023-03-31T01:48:10.905Z,503.00
2023-03-31T01:49:10.899Z,502.00
2023-03-31T01:50:10.961Z,504.00
2023-03-31T01:51:10.960Z,505.00
2023-03-31T01:52:11.030Z,502.00
2023-03-31T01:53:10.955Z,501.00
2023-03-31T01:54:10.995Z,504.00
2023-03-31T01:55:11.018Z,504.00
2023-03-31T01:56:11.017Z,502.00
2023-03-31T01:57:11.077Z,503.00
2023-03-31T01:58:11.039Z,505.00
2023-03-31T01:59:11.051Z,501.00
2023-03-31T02:00:11.116Z,501.00
2023-03-31T02:01:11.083Z,500.00
2023-03-31T02:02:11.105Z,502.00
2023-03-31T02:03:11.181Z,502.00
2023-03-31T02:04:11.126Z,501.00
2023-03-31T02:05:11.150Z,500.00
2023-03-31T02:06:11.162Z,501.00
2023-03-31T02:07:11.156Z,502.00
2023-03-31T02:08:11.244Z,502.00
2023-03-31T02:09:11.217Z,502.00
2023-03-31T02:10:11.199Z,504.00
2023-03-31T02:11:11.222Z,503.00
2023-03-31T02:12:11.217Z,505.00
2023-03-31T02:13:11.227Z,503.00
2023-03-31T02:14:11.286Z,501.00
2023-03-31T02:15:11.303Z,500.00
2023-03-31T02:16:11.313Z,503.00
2023-03-31T02:17:11.283Z,501.00
2023-03-31T02:18:11.614Z,504.00
2023-03-31T02:19:11.335Z,503.00
2023-03-31T02:20:11.366Z,504.00
2023-03-31T02:21:11.386Z,501.00
2023-03-31T02:22:11.393Z,502.00
2023-03-31T02:23:11.439Z,502.00
2023-03-31T02:24:11.432Z,500.00
2023-03-31T02:25:11.467Z,503.00
2023-03-31T02:26:11.467Z,508.00
2023-03-31T02:27:11.518Z,507.00
2023-03-31T02:28:11.516Z,506.00
2023-03-31T02:29:11.525Z,502.00
2023-03-31T02:30:11.535Z,501.00
2023-03-31T02:31:11.593Z,503.00
2023-03-31T02:32:11.565Z,501.00
2023-03-31T02:33:11.579Z,501.00
2023-03-31T02:34:11.579Z,502.00
2023-03-31T02:35:11.628Z,501.00
2023-03-31T02:36:11.671Z,500.00
2023-03-31T02:37:12.432Z,500.00
2023-03-31T02:38:11.667Z,502.00
2023-03-31T02:39:11.680Z,502.00
2023-03-31T02:40:11.713Z,504.00
2023-03-31T02:41:11.762Z,507.00
2023-03-31T02:42:11.796Z,503.00
2023-03-31T02:43:11.813Z,504.00
2023-03-31T02:44:11.805Z,507.00
2023-03-31T02:45:11.841Z,503.00
2023-03-31T02:46:11.961Z,502.00
2023-03-31T02:47:11.845Z,505.00
2023-03-31T02:48:11.870Z,501.00
2023-03-31T02:49:11.903Z,501.00
2023-03-31T02:50:11.919Z,503.00
2023-03-31T02:51:11.934Z,503.00
2023-03-31T02:52:11.975Z,505.00
2023-03-31T02:53:11.984Z,503.00
2023-03-31T02:54:12.009Z,502.00
2023-03-31T02:55:11.999Z,501.00
2023-03-31T02:56:12.033Z,506.00
2023-03-31T02:57:12.106Z,501.00
2023-03-31T02:58:12.092Z,501.00
2023-03-31T02:59:12.104Z,506.00
2023-03-31T03:00:12.127Z,503.00
2023-03-31T03:01:12.228Z,503.00
2023-03-31T03:02:12.327Z,506.00
2023-03-31T03:03:12.207Z,504.00
2023-03-31T03:04:12.192Z,505.00
2023-03-31T03:05:12.211Z,506.00
2023-03-31T03:06:12.237Z,503.00
2023-03-31T03:07:12.235Z,507.00
2023-03-31T03:08:12.279Z,508.00
2023-03-31T03:09:12.309Z,507.00
2023-03-31T03:10:12.344Z,506.00
2023-03-31T03:11:12.385Z,508.00
2023-03-31T03:12:12.368Z,502.00
2023-03-31T03:13:12.425Z,505.00
2023-03-31T03:14:12.429Z,503.00
2023-03-31T03:15:12.450Z,507.00
2023-03-31T03:16:12.501Z,503.00
2023-03-31T03:17:12.485Z,501.00
2023-03-31T03:18:12.563Z,500.00
2023-03-31T03:19:12.530Z,500.00
2023-03-31T03:20:12.598Z,503.00
2023-03-31T03:21:12.576Z,505.00
2023-03-31T03:22:12.611Z,505.00
2023-03-31T03:23:12.612Z,505.00
2023-03-31T03:24:12.632Z,507.00
2023-03-31T03:25:12.677Z,505.00
2023-03-31T03:26:12.661Z,504.00
2023-03-31T03:27:12.719Z,503.00
2023-03-31T03:28:12.727Z,507.00
2023-03-31T03:29:12.753Z,505.00
2023-03-31T03:30:12.801Z,505.00
2023-03-31T03:31:12.827Z,505.00
2023-03-31T03:32:12.816Z,504.00
2023-03-31T03:33:14.372Z,505.00
2023-03-31T03:34:12.812Z,513.00
2023-03-31T03:35:12.802Z,506.00
2023-03-31T03:36:12.854Z,505.00
2023-03-31T03:37:12.799Z,506.00
2023-03-31T03:38:12.800Z,503.00
2023-03-31T03:39:12.786Z,504.00
2023-03-31T03:40:12.768Z,504.00
2023-03-31T03:41:12.806Z,504.00
2023-03-31T03:42:12.772Z,505.00
2023-03-31T03:43:12.763Z,502.00
2023-03-31T03:44:12.737Z,503.00
2023-03-31T03:45:12.741Z,504.00
2023-03-31T03:46:12.787Z,505.00
2023-03-31T03:47:12.752Z,506.00
2023-03-31T03:48:12.759Z,501.00
2023-03-31T03:49:12.769Z,501.00
2023-03-31T03:50:14.066Z,504.00
2023-03-31T03:51:12.702Z,504.00
2023-03-31T03:52:12.727Z,505.00
2023-03-31T03:53:12.700Z,505.00
2023-03-31T03:54:12.689Z,503.00
2023-03-31T03:55:12.687Z,503.00
2023-03-31T03:56:12.654Z,505.00
2023-03-31T03:57:12.692Z,507.00
2023-03-31T03:58:12.681Z,506.00
2023-03-31T03:59:12.650Z,504.00
2023-03-31T04:00:12.864Z,503.00
2023-03-31T04:01:12.665Z,504.00
2023-03-31T04:02:12.616Z,504.00
2023-03-31T04:03:12.658Z,502.00
2023-03-31T04:04:12.619Z,505.00
2023-03-31T04:05:12.666Z,502.00
2023-03-31T04:06:12.610Z,501.00
2023-03-31T04:07:12.613Z,504.00
2023-03-31T04:08:12.595Z,504.00
2023-03-31T04:09:12.587Z,500.00
2023-03-31T04:10:12.608Z,505.00
2023-03-31T04:11:12.587Z,502.00
2023-03-31T04:12:12.565Z,503.00
2023-03-31T04:13:12.571Z,502.00
2023-03-31T04:14:12.522Z,504.00
2023-03-31T04:15:12.531Z,504.00
2023-03-31T04:16:12.593Z,501.00
2023-03-31T04:17:12.535Z,506.00
2023-03-31T04:18:14.649Z,503.00
2023-03-31T04:19:12.642Z,503.00
2023-03-31T04:20:12.619Z,503.00
2023-03-31T04:21:12.683Z,503.00
2023-03-31T04:22:12.693Z,504.00
2023-03-31T04:23:12.710Z,500.00
2023-03-31T04:24:12.717Z,500.00
2023-03-31T04:25:12.768Z,504.00
2023-03-31T04:26:12.746Z,505.00
2023-03-31T04:27:12.799Z,507.00
2023-03-31T04:28:12.817Z,503.00
2023-03-31T04:29:12.984Z,507.00
2023-03-31T04:30:12.864Z,501.00
2023-03-31T04:31:12.932Z,505.00
2023-03-31T04:32:12.916Z,506.00
2023-03-31T04:33:12.937Z,502.00
2023-03-31T04:34:12.941Z,503.00
2023-03-31T04:35:12.981Z,506.00
2023-03-31T04:36:12.997Z,504.00
2023-03-31T04:37:13.026Z,504.00
2023-03-31T04:38:13.023Z,505.00
2023-03-31T04:39:13.068Z,503.00
2023-03-31T04:40:13.070Z,507.00
2023-03-31T04:41:13.102Z,504.00
2023-03-31T04:42:13.137Z,505.00
2023-03-31T04:43:13.188Z,505.00
2023-03-31T04:44:13.177Z,506.00
2023-03-31T04:45:13.222Z,505.00
2023-03-31T04:46:13.276Z,506.00
2023-03-31T04:47:13.243Z,510.00
2023-03-31T04:48:13.292Z,505.00
2023-03-31T04:49:13.328Z,505.00
2023-03-31T04:50:16.745Z,508.00
2023-03-31T04:51:13.362Z,513.00
2023-03-31T04:52:13.334Z,510.00
2023-03-31T04:53:13.341Z,510.00
2023-03-31T04:54:13.331Z,505.00
2023-03-31T04:55:13.332Z,506.00
2023-03-31T04:56:13.291Z,506.00
2023-03-31T04:57:13.348Z,504.00
2023-03-31T04:58:13.281Z,504.00
2023-03-31T04:59:13.269Z,500.00
2023-03-31T05:00:13.334Z,506.00
2023-03-31T05:01:13.278Z,505.00
2023-03-31T05:02:13.302Z,503.00
2023-03-31T05:03:13.336Z,504.00
2023-03-31T05:04:13.246Z,504.00
2023-03-31T05:05:13.222Z,504.00
2023-03-31T05:06:13.238Z,504.00
2023-03-31T05:07:13.217Z,505.00
2023-03-31T05:08:13.202Z,506.00
2023-03-31T05:09:13.230Z,504.00
2023-03-31T05:10:13.201Z,505.00
2023-03-31T05:11:13.219Z,505.00
2023-03-31T05:12:13.181Z,504.00
2023-03-31T05:13:13.222Z,505.00
2023-03-31T05:14:13.184Z,508.00
2023-03-31T05:15:13.188Z,507.00
2023-03-31T05:16:13.186Z,507.00
2023-03-31T05:17:13.184Z,508.00
2023-03-31T05:18:13.158Z,505.00
2023-03-31T05:19:13.257Z,507.00
2023-03-31T05:20:13.171Z,506.00
2023-03-31T05:21:13.125Z,510.00
2023-03-31T05:22:13.121Z,509.00
2023-03-31T05:23:13.124Z,508.00
2023-03-31T05:24:13.131Z,508.00
2023-03-31T05:25:13.104Z,509.00
2023-03-31T05:26:13.141Z,508.00
2023-03-31T05:27:13.104Z,507.00
2023-03-31T05:28:13.123Z,507.00
2023-03-31T05:29:13.138Z,509.00
2023-03-31T05:30:13.087Z,509.00
2023-03-31T05:31:13.324Z,505.00
2023-03-31T05:32:13.070Z,509.00
2023-03-31T05:33:13.074Z,508.00
2023-03-31T05:34:13.063Z,528.00
2023-03-31T05:35:13.052Z,538.00
2023-03-31T05:36:13.118Z,544.00
2023-03-31T05:37:13.074Z,543.00
2023-03-31T05:38:13.026Z,558.00
2023-03-31T05:39:13.042Z,560.00
2023-03-31T05:40:13.030Z,564.00
2023-03-31T05:41:13.015Z,573.00
2023-03-31T05:42:12.997Z,584.00
2023-03-31T05:43:13.047Z,596.00
2023-03-31T05:44:13.092Z,599.00
2023-03-31T05:45:14.086Z,610.00
2023-03-31T05:46:20.199Z,616.00
2023-03-31T05:47:13.169Z,617.00
2023-03-31T05:48:13.108Z,621.00
2023-03-31T05:49:13.567Z,633.00
2023-03-31T05:50:14.806Z,651.00
2023-03-31T05:51:13.100Z,697.00
2023-03-31T05:52:13.152Z,799.00
2023-03-31T05:53:13.131Z,801.00
2023-03-31T05:54:13.107Z,808.00
2023-03-31T05:55:13.079Z,820.00
2023-03-31T05:56:13.049Z,842.00
2023-03-31T05:57:13.109Z,881.00
2023-03-31T05:58:13.033Z,896.00
2023-03-31T05:59:15.136Z,914.00
2023-03-31T06:00:13.065Z,959.00
2023-03-31T06:01:13.084Z,985.00
2023-03-31T06:02:13.105Z,1022.00
2023-03-31T06:03:13.124Z,1000.00
2023-03-31T06:04:13.159Z,1050.00
2023-03-31T06:05:13.066Z,1057.00
2023-03-31T06:06:13.058Z,1067.00
2023-03-31T06:07:13.017Z,1093.00
2023-03-31T06:08:13.093Z,1131.00
2023-03-31T06:09:13.039Z,1151.00
2023-03-31T06:10:12.996Z,1158.00
2023-03-31T06:11:12.990Z,1174.00
2023-03-31T06:12:12.999Z,1180.00
2023-03-31T06:13:12.960Z,1197.00
2023-03-31T06:14:12.956Z,1195.00
2023-03-31T06:15:13.070Z,1190.00
2023-03-31T06:16:13.208Z,1212.00
2023-03-31T06:17:13.098Z,1213.00
2023-03-31T06:18:13.141Z,1229.00
2023-03-31T06:19:13.181Z,1234.00
2023-03-31T06:20:27.220Z,1238.00
2023-03-31T06:21:14.216Z,1240.00
2023-03-31T06:22:13.300Z,1249.00
2023-03-31T06:23:13.294Z,1261.00
2023-03-31T06:24:13.219Z,1278.00
2023-03-31T06:25:13.213Z,1314.00
2023-03-31T06:26:13.184Z,1319.00
2023-03-31T06:27:13.168Z,1342.00
2023-03-31T06:28:13.181Z,1302.00
2023-03-31T06:29:13.148Z,1333.00
2023-03-31T06:30:13.180Z,1378.00
2023-03-31T06:31:13.225Z,1376.00
2023-03-31T06:32:13.189Z,1370.00
2023-03-31T06:33:13.247Z,1370.00
2023-03-31T06:34:13.297Z,1378.00
2023-03-31T06:35:13.363Z,1384.00
2023-03-31T06:36:13.457Z,1397.00
2023-03-31T06:37:13.490Z,1410.00
2023-03-31T06:38:13.523Z,1403.00
2023-03-31T06:39:13.602Z,1414.00
2023-03-31T06:40:14.125Z,1425.00
2023-03-31T06:41:13.723Z,1420.00
2023-03-31T06:42:13.748Z,1429.00
2023-03-31T06:43:14.576Z,1428.00
2023-03-31T06:44:13.898Z,1433.00
2023-03-31T06:45:13.952Z,1428.00
2023-03-31T06:46:14.093Z,1456.00
2023-03-31T06:47:14.061Z,1479.00
2023-03-31T06:48:14.100Z,1458.00
2023-03-31T06:49:14.186Z,1471.00
2023-03-31T06:50:14.236Z,1491.00
2023-03-31T06:51:14.249Z,1498.00
2023-03-31T06:52:14.336Z,1492.00
2023-03-31T06:53:14.415Z,1494.00
2023-03-31T06:54:14.489Z,1476.00
2023-03-31T06:55:14.537Z,1482.00
2023-03-31T06:56:14.575Z,1484.00
2023-03-31T06:57:14.878Z,1469.00
2023-03-31T06:58:14.703Z,1466.00
2023-03-31T06:59:14.760Z,1468.00
2023-03-31T07:00:15.078Z,1448.00
2023-03-31T07:01:14.902Z,1465.00
2023-03-31T07:02:14.945Z,1467.00
2023-03-31T07:03:15.096Z,1454.00
2023-03-31T07:04:15.002Z,1523.00
2023-03-31T07:05:15.612Z,1509.00
2023-03-31T07:06:15.116Z,1498.00
2023-03-31T07:07:15.225Z,1480.00
2023-03-31T07:08:15.260Z,1515.00
2023-03-31T07:09:15.303Z,1479.00
2023-03-31T07:10:15.397Z,1476.00
2023-03-31T07:11:15.457Z,1497.00
2023-03-31T07:12:15.515Z,1514.00
2023-03-31T07:13:15.571Z,1542.00
2023-03-31T07:14:15.617Z,1534.00
2023-03-31T07:15:15.692Z,1548.00
2023-03-31T07:16:15.787Z,1566.00
2023-03-31T07:17:15.806Z,1540.00
2023-03-31T07:18:15.969Z,1517.00
2023-03-31T07:19:15.907Z,1524.00
2023-03-31T07:20:16.126Z,1554.00
2023-03-31T07:21:15.990Z,1536.00
2023-03-31T07:22:16.097Z,1551.00
2023-03-31T07:23:16.120Z,1549.00
2023-03-31T07:24:16.152Z,1560.00
2023-03-31T07:25:16.192Z,1580.00
2023-03-31T07:26:16.227Z,1598.00
2023-03-31T07:27:16.273Z,1597.00
2023-03-31T07:28:16.336Z,1585.00
2023-03-31T07:29:16.345Z,1615.00
2023-03-31T07:30:16.405Z,1635.00
2023-03-31T07:31:16.466Z,1635.00
2023-03-31T07:32:16.530Z,1645.00
2023-03-31T07:33:16.546Z,1671.00
2023-03-31T07:34:16.577Z,1680.00
2023-03-31T07:35:17.090Z,1701.00
2023-03-31T07:36:16.870Z,1694.00
2023-03-31T07:37:16.674Z,1705.00
2023-03-31T07:38:16.720Z,1606.00
2023-03-31T07:39:16.770Z,1600.00
2023-03-31T07:40:16.886Z,1534.00
2023-03-31T07:41:16.887Z,1555.00
2023-03-31T07:42:16.937Z,1528.00
2023-03-31T07:43:16.937Z,1496.00
2023-03-31T07:44:17.078Z,1462.00
2023-03-31T07:45:17.079Z,1428.00
2023-03-31T07:46:17.138Z,1432.00
2023-03-31T07:47:17.124Z,1429.00
2023-03-31T07:48:17.184Z,1430.00
2023-03-31T07:49:17.248Z,1445.00
2023-03-31T07:50:17.297Z,1433.00
2023-03-31T07:51:17.356Z,1438.00
2023-03-31T07:52:17.415Z,1425.00
2023-03-31T07:53:17.487Z,1404.00
2023-03-31T07:54:17.537Z,1416.00
2023-03-31T07:55:18.113Z,1410.00
2023-03-31T07:56:17.640Z,1413.00
2023-03-31T07:57:17.798Z,1399.00
2023-03-31T07:58:17.834Z,1390.00
2023-03-31T07:59:17.881Z,1412.00
2023-03-31T08:00:17.934Z,1405.00
2023-03-31T08:01:17.987Z,1406.00
2023-03-31T08:02:18.727Z,1401.00
2023-03-31T08:03:18.116Z,1362.00
2023-03-31T08:04:18.216Z,1380.00
2023-03-31T08:05:18.190Z,1383.00
2023-03-31T08:06:18.323Z,1389.00
2023-03-31T08:07:18.340Z,1387.00
2023-03-31T08:08:18.400Z,1390.00
2023-03-31T08:09:18.456Z,1393.00
2023-03-31T08:10:18.549Z,1396.00
2023-03-31T08:11:18.551Z,1391.00
2023-03-31T08:12:18.599Z,1385.00
2023-03-31T08:13:18.652Z,1391.00
2023-03-31T08:14:30.279Z,1409.00
2023-03-31T08:15:19.731Z,1410.00
2023-03-31T08:16:18.724Z,1400.00
2023-03-31T08:17:18.708Z,1396.00
2023-03-31T08:18:18.667Z,1409.00
2023-03-31T08:19:18.677Z,1422.00
2023-03-31T08:20:19.147Z,1431.00
2023-03-31T08:21:18.693Z,1413.00
2023-03-31T08:22:18.642Z,1431.00
2023-03-31T08:23:18.640Z,1436.00
2023-03-31T08:24:18.653Z,1451.00
2023-03-31T08:25:18.617Z,1443.00
2023-03-31T08:26:18.640Z,1457.00
2023-03-31T08:27:18.594Z,1447.00
2023-03-31T08:28:18.608Z,1428.00
2023-03-31T08:29:18.642Z,1462.00
2023-03-31T08:30:18.660Z,1456.00
2023-03-31T08:31:18.871Z,1465.00
2023-03-31T08:32:18.721Z,1448.00
2023-03-31T08:33:18.808Z,1399.00
2023-03-31T08:34:18.835Z,1423.00
2023-03-31T08:35:19.141Z,1390.00
2023-03-31T08:36:19.040Z,1368.00
2023-03-31T08:37:18.983Z,1345.00
2023-03-31T08:38:19.029Z,1331.00
2023-03-31T08:39:19.085Z,1307.00
2023-03-31T08:40:19.152Z,1282.00
2023-03-31T08:41:19.208Z,1255.00
2023-03-31T08:42:19.221Z,1270.00
2023-03-31T08:43:19.256Z,1259.00
2023-03-31T08:44:19.317Z,1251.00
2023-03-31T08:45:19.653Z,1288.00
2023-03-31T08:46:19.470Z,1270.00
2023-03-31T08:47:19.434Z,1262.00
2023-03-31T08:48:19.518Z,1240.00
2023-03-31T08:49:19.562Z,1198.00
2023-03-31T08:50:19.641Z,1162.00
2023-03-31T08:51:19.669Z,1191.00
2023-03-31T08:52:19.681Z,1203.00
2023-03-31T08:53:19.761Z,1235.00
2023-03-31T08:54:19.817Z,1266.00
2023-03-31T08:55:19.861Z,1162.00
2023-03-31T08:56:19.962Z,1126.00
2023-03-31T08:57:20.110Z,1169.00
2023-03-31T08:58:20.039Z,1151.00
2023-03-31T08:59:20.087Z,1104.00
2023-03-31T09:00:20.127Z,1067.00
2023-03-31T09:01:20.228Z,1045.00
2023-03-31T09:02:20.338Z,1024.00
2023-03-31T09:03:20.390Z,1007.00
2023-03-31T09:04:20.485Z,1048.00
2023-03-31T09:05:20.377Z,1007.00
2023-03-31T09:06:20.403Z,971.00
2023-03-31T09:07:20.450Z,940.00
2023-03-31T09:08:20.462Z,904.00
2023-03-31T09:09:20.474Z,860.00
2023-03-31T09:10:20.471Z,840.00
2023-03-31T09:11:20.512Z,843.00
2023-03-31T09:12:20.441Z,824.00
2023-03-31T09:13:20.427Z,814.00
2023-03-31T09:14:20.507Z,836.00
2023-03-31T09:15:20.513Z,807.00
2023-03-31T09:16:20.703Z,770.00
2023-03-31T09:17:20.710Z,755.00
2023-03-31T09:18:20.948Z,785.00
2023-03-31T09:19:20.741Z,755.00
2023-03-31T09:20:20.801Z,793.00
2023-03-31T09:21:20.875Z,809.00
2023-03-31T09:22:20.863Z,719.00
2023-03-31T09:23:20.928Z,668.00
2023-03-31T09:24:20.955Z,643.00
2023-03-31T09:25:20.983Z,650.00
2023-03-31T09:26:21.045Z,658.00
2023-03-31T09:27:21.104Z,627.00
2023-03-31T09:28:21.114Z,642.00
2023-03-31T09:29:21.159Z,620.00
2023-03-31T09:30:21.293Z,613.00
2023-03-31T09:31:21.673Z,623.00
2023-03-31T09:32:21.328Z,629.00
2023-03-31T09:33:21.373Z,665.00
2023-03-31T09:34:21.387Z,677.00
2023-03-31T09:35:21.445Z,649.00
2023-03-31T09:36:21.599Z,690.00
2023-03-31T09:37:21.579Z,701.00
2023-03-31T09:38:21.655Z,676.00
2023-03-31T09:39:21.705Z,744.00
2023-03-31T09:40:21.747Z,674.00
2023-03-31T09:41:21.804Z,658.00
2023-03-31T09:42:21.817Z,986.00
2023-03-31T09:43:21.886Z,999.00
2023-03-31T09:44:21.948Z,1065.00
2023-03-31T09:45:22.008Z,1123.00
2023-03-31T09:46:22.312Z,1148.00
2023-03-31T09:47:22.066Z,1181.00
2023-03-31T09:48:22.173Z,1187.00
2023-03-31T09:49:22.128Z,1194.00
2023-03-31T09:50:25.346Z,1226.00
2023-03-31T09:51:22.144Z,1228.00
2023-03-31T09:52:22.152Z,1217.00
2023-03-31T09:53:22.108Z,1245.00
2023-03-31T09:54:22.169Z,1252.00
2023-03-31T09:55:35.910Z,1258.00
2023-03-31T09:56:23.386Z,1260.00
2023-03-31T09:57:22.165Z,1266.00
2023-03-31T09:58:22.092Z,1277.00
2023-03-31T09:59:22.076Z,1296.00
2023-03-31T10:00:22.054Z,1318.00
2023-03-31T10:01:22.065Z,1332.00
2023-03-31T10:02:22.048Z,1317.00
2023-03-31T10:03:22.041Z,1317.00
2023-03-31T10:04:22.154Z,1321.00
2023-03-31T10:05:22.026Z,1303.00
2023-03-31T10:06:22.036Z,1306.00
2023-03-31T10:07:22.031Z,1296.00
2023-03-31T10:08:21.992Z,1307.00
2023-03-31T10:09:22.020Z,1313.00
2023-03-31T10:10:22.017Z,1327.00
2023-03-31T10:11:21.998Z,1301.00
2023-03-31T10:12:22.083Z,1315.00
2023-03-31T10:13:21.966Z,1302.00
2023-03-31T10:14:22.033Z,1302.00
2023-03-31T10:15:21.966Z,1303.00
2023-03-31T10:16:22.013Z,1296.00
2023-03-31T10:17:22.248Z,1298.00
2023-03-31T10:18:22.220Z,1289.00
2023-03-31T10:19:22.042Z,1298.00
2023-03-31T10:20:22.097Z,1291.00
2023-03-31T10:21:22.145Z,1284.00
2023-03-31T10:22:22.183Z,1297.00
2023-03-31T10:23:22.235Z,1290.00
2023-03-31T10:24:22.281Z,1275.00
2023-03-31T10:25:22.311Z,1285.00
2023-03-31T10:26:22.339Z,1272.00
2023-03-31T10:27:22.351Z,1267.00
2023-03-31T10:28:22.445Z,1260.00
2023-03-31T10:29:22.462Z,1267.00
2023-03-31T10:30:22.506Z,1261.00
2023-03-31T10:31:22.613Z,1260.00
2023-03-31T10:32:22.726Z,1263.00
2023-03-31T10:33:23.639Z,1256.00
2023-03-31T10:34:22.700Z,1251.00
2023-03-31T10:35:22.747Z,1257.00
2023-03-31T10:36:22.811Z,1257.00
2023-03-31T10:37:23.189Z,1255.00
2023-03-31T10:38:22.911Z,1247.00
2023-03-31T10:39:22.971Z,1247.00
2023-03-31T10:40:22.984Z,1252.00
2023-03-31T10:41:23.132Z,1240.00
2023-03-31T10:42:23.092Z,1252.00
2023-03-31T10:43:23.137Z,1241.00
2023-03-31T10:44:23.197Z,1244.00
2023-03-31T10:45:35.565Z,1243.00
2023-03-31T10:46:24.307Z,1244.00
2023-03-31T10:47:24.132Z,1235.00
2023-03-31T10:48:23.232Z,1245.00
2023-03-31T10:49:23.207Z,1249.00
2023-03-31T10:50:23.187Z,1239.00
2023-03-31T10:51:23.193Z,1234.00
2023-03-31T10:52:23.718Z,1239.00
2023-03-31T10:53:23.220Z,1235.00
2023-03-31T10:54:23.188Z,1233.00
2023-03-31T10:55:23.299Z,1235.00
2023-03-31T10:56:23.196Z,1221.00
2023-03-31T10:57:23.320Z,1232.00
2023-03-31T10:58:23.311Z,1225.00
2023-03-31T10:59:23.370Z,1211.00
2023-03-31T11:00:23.453Z,1220.00
2023-03-31T11:01:23.480Z,1212.00
2023-03-31T11:02:23.654Z,1224.00
2023-03-31T11:03:23.749Z,1223.00
2023-03-31T11:04:23.644Z,1214.00
2023-03-31T11:05:23.760Z,1204.00
2023-03-31T11:06:23.820Z,1211.00
2023-03-31T11:07:23.965Z,1217.00
2023-03-31T11:08:23.947Z,1189.00
2023-03-31T11:09:23.973Z,1188.00
2023-03-31T11:10:24.088Z,1201.00
2023-03-31T11:11:24.122Z,1205.00
2023-03-31T11:12:24.153Z,1193.00
2023-03-31T11:13:24.271Z,1178.00
2023-03-31T11:14:24.353Z,1178.00
2023-03-31T11:15:24.340Z,1181.00
2023-03-31T11:16:24.534Z,1191.00
2023-03-31T11:17:24.569Z,1194.00
2023-03-31T11:18:24.506Z,1168.00
2023-03-31T11:19:24.647Z,1177.00
2023-03-31T11:20:24.682Z,1168.00
2023-03-31T11:21:24.742Z,1162.00
2023-03-31T11:22:24.812Z,1155.00
2023-03-31T11:23:24.913Z,1153.00
2023-03-31T11:24:24.926Z,1156.00
2023-03-31T11:25:24.996Z,1161.00
2023-03-31T11:26:25.106Z,1145.00
2023-03-31T11:27:25.115Z,1149.00
2023-03-31T11:28:25.187Z,1145.00
2023-03-31T11:29:25.220Z,1128.00
2023-03-31T11:30:25.344Z,1132.00
2023-03-31T11:31:25.408Z,1141.00
2023-03-31T11:32:25.744Z,1128.00
2023-03-31T11:33:25.504Z,1128.00
2023-03-31T11:34:25.543Z,1122.00
2023-03-31T11:35:25.615Z,1120.00
2023-03-31T11:36:25.662Z,1116.00
2023-03-31T11:37:26.903Z,1118.00
2023-03-31T11:38:25.810Z,1116.00
2023-03-31T11:39:25.848Z,1105.00
2023-03-31T11:40:25.945Z,1104.00
2023-03-31T11:41:25.999Z,1107.00
2023-03-31T11:42:26.042Z,1097.00
2023-03-31T11:43:26.136Z,1101.00
2023-03-31T11:44:26.187Z,1091.00
2023-03-31T11:45:26.243Z,1092.00
2023-03-31T11:46:26.304Z,1099.00
2023-03-31T11:47:26.349Z,1088.00
2023-03-31T11:48:26.413Z,1093.00
2023-03-31T11:49:26.446Z,1087.00
2023-03-31T11:50:26.510Z,1080.00
2023-03-31T11:51:26.557Z,1080.00
2023-03-31T11:52:26.589Z,1075.00
2023-03-31T11:53:26.672Z,1072.00
2023-03-31T11:54:26.719Z,1077.00
2023-03-31T11:55:26.792Z,1076.00
2023-03-31T11:56:26.849Z,1071.00
2023-03-31T11:57:27.029Z,1062.00
2023-03-31T11:58:26.907Z,1056.00
2023-03-31T11:59:26.959Z,1058.00
2023-03-31T12:00:27.014Z,1048.00
2023-03-31T12:01:27.033Z,1044.00
2023-03-31T12:02:27.171Z,1054.00
2023-03-31T12:03:27.162Z,1047.00
2023-03-31T12:04:27.142Z,1045.00
2023-03-31T12:05:27.279Z,1044.00
2023-03-31T12:06:27.390Z,1044.00
2023-03-31T12:07:27.304Z,1037.00
2023-03-31T12:08:27.368Z,1037.00
2023-03-31T12:09:27.424Z,1034.00
2023-03-31T12:10:27.484Z,1031.00
2023-03-31T12:11:27.500Z,1030.00
2023-03-31T12:12:27.623Z,1019.00
2023-03-31T12:13:27.605Z,1017.00
2023-03-31T12:14:27.726Z,1023.00
2023-03-31T12:15:27.740Z,1016.00
2023-03-31T12:16:27.825Z,1014.00
2023-03-31T12:17:27.860Z,1014.00